Terminal Aerodrome Forecast
Issued by NWS Houston/Galveston, TX

Current Version | Previous Version | Text Only | Print | Product List | Glossary On
Versions: 1 2 3 4 5 6 7 8 9 10 11 12 13 14 15 16 17 18 19 20 21 22 23
000
FTUS44 KHGX 181725
TAFGLS
TAF
KGLS 181725Z 1818/1918 16013KT 6SM BR VCSH SCT025
      TEMPO 1819/1823 3SM TSRA BR OVC006CB
     FM190200 17008KT 2SM BR OVC007
     FM190900 23008KT 2SM SHRA BR VCTS OVC005CB
     FM191500 24006KT 4SM BR VCSH BKN007 BKN015=

USA.gov is the U.S. government's official web portal to all federal, state and local government web resources and services.